sensor_id;sensor_type;location;lat;lon;timestamp;P1;durP1;ratioP1;P2;durP2;ratioP2
11931;SDS011;6025;51.368;6.788;2023-02-28T00:04:18;4.63;;;2.83;;
11931;SDS011;6025;51.368;6.788;2023-02-28T00:09:11;5.03;;;3.03;;
11931;SDS011;6025;51.368;6.788;2023-02-28T00:14:02;3.57;;;2.83;;
11931;SDS011;6025;51.368;6.788;2023-02-28T00:18:54;3.80;;;2.90;;
11931;SDS011;6025;51.368;6.788;2023-02-28T00:23:46;5.03;;;2.73;;
11931;SDS011;6025;51.368;6.788;2023-02-28T00:28:39;5.13;;;3.03;;
11931;SDS011;6025;51.368;6.788;2023-02-28T00:33:30;4.50;;;3.13;;
11931;SDS011;6025;51.368;6.788;2023-02-28T00:38:22;3.70;;;3.00;;
11931;SDS011;6025;51.368;6.788;2023-02-28T00:43:13;4.83;;;3.30;;
11931;SDS011;6025;51.368;6.788;2023-02-28T00:48:06;3.80;;;2.97;;
11931;SDS011;6025;51.368;6.788;2023-02-28T00:52:58;4.73;;;3.30;;
11931;SDS011;6025;51.368;6.788;2023-02-28T00:57:49;5.87;;;3.43;;
11931;SDS011;6025;51.368;6.788;2023-02-28T01:02:41;3.90;;;3.00;;
11931;SDS011;6025;51.368;6.788;2023-02-28T01:07:34;5.23;;;3.30;;
11931;SDS011;6025;51.368;6.788;2023-02-28T01:12:25;4.33;;;3.17;;
11931;SDS011;6025;51.368;6.788;2023-02-28T01:17:17;5.03;;;3.10;;
11931;SDS011;6025;51.368;6.788;2023-02-28T01:22:08;3.93;;;2.70;;
11931;SDS011;6025;51.368;6.788;2023-02-28T01:27:01;5.20;;;2.53;;
11931;SDS011;6025;51.368;6.788;2023-02-28T01:31:53;4.30;;;2.60;;
11931;SDS011;6025;51.368;6.788;2023-02-28T01:36:45;4.67;;;2.77;;
11931;SDS011;6025;51.368;6.788;2023-02-28T01:41:36;3.77;;;2.67;;
11931;SDS011;6025;51.368;6.788;2023-02-28T01:46:29;4.10;;;2.60;;
11931;SDS011;6025;51.368;6.788;2023-02-28T01:51:21;3.37;;;2.60;;
11931;SDS011;6025;51.368;6.788;2023-02-28T01:56:16;3.83;;;2.90;;
11931;SDS011;6025;51.368;6.788;2023-02-28T02:01:10;2.60;;;2.23;;
11931;SDS011;6025;51.368;6.788;2023-02-28T02:06:12;2.83;;;2.37;;
11931;SDS011;6025;51.368;6.788;2023-02-28T02:11:03;3.37;;;2.43;;
11931;SDS011;6025;51.368;6.788;2023-02-28T02:16:00;2.67;;;2.30;;
11931;SDS011;6025;51.368;6.788;2023-02-28T02:21:07;3.07;;;2.10;;
11931;SDS011;6025;51.368;6.788;2023-02-28T02:31:39;2.93;;;2.10;;
11931;SDS011;6025;51.368;6.788;2023-02-28T02:36:47;3.33;;;2.43;;
11931;SDS011;6025;51.368;6.788;2023-02-28T02:41:45;2.60;;;2.20;;
11931;SDS011;6025;51.368;6.788;2023-02-28T02:46:38;4.17;;;2.40;;
11931;SDS011;6025;51.368;6.788;2023-02-28T02:51:32;4.03;;;2.37;;
11931;SDS011;6025;51.368;6.788;2023-02-28T02:56:26;4.73;;;2.40;;
11931;SDS011;6025;51.368;6.788;2023-02-28T03:01:21;3.77;;;2.03;;
11931;SDS011;6025;51.368;6.788;2023-02-28T03:06:18;4.33;;;2.30;;
11931;SDS011;6025;51.368;6.788;2023-02-28T03:11:11;5.53;;;2.57;;
11931;SDS011;6025;51.368;6.788;2023-02-28T03:16:10;5.50;;;2.67;;
11931;SDS011;6025;51.368;6.788;2023-02-28T03:21:27;3.70;;;2.30;;
11931;SDS011;6025;51.368;6.788;2023-02-28T03:26:23;2.80;;;2.47;;
11931;SDS011;6025;51.368;6.788;2023-02-28T03:31:19;6.40;;;2.50;;
11931;SDS011;6025;51.368;6.788;2023-02-28T03:36:13;2.80;;;2.40;;
11931;SDS011;6025;51.368;6.788;2023-02-28T03:41:09;3.10;;;2.30;;
11931;SDS011;6025;51.368;6.788;2023-02-28T03:46:04;3.00;;;2.20;;
11931;SDS011;6025;51.368;6.788;2023-02-28T03:51:00;3.03;;;2.33;;
11931;SDS011;6025;51.368;6.788;2023-02-28T03:55:53;2.67;;;2.33;;
11931;SDS011;6025;51.368;6.788;2023-02-28T04:00:47;3.67;;;2.30;;
11931;SDS011;6025;51.368;6.788;2023-02-28T04:05:49;4.90;;;2.40;;
11931;SDS011;6025;51.368;6.788;2023-02-28T04:10:43;3.33;;;2.20;;
11931;SDS011;6025;51.368;6.788;2023-02-28T04:15:36;3.17;;;2.50;;
11931;SDS011;6025;51.368;6.788;2023-02-28T04:20:28;2.97;;;2.10;;
11931;SDS011;6025;51.368;6.788;2023-02-28T04:25:19;4.13;;;3.10;;
11931;SDS011;6025;51.368;6.788;2023-02-28T04:30:12;2.77;;;2.20;;
11931;SDS011;6025;51.368;6.788;2023-02-28T04:35:04;3.80;;;2.33;;
11931;SDS011;6025;51.368;6.788;2023-02-28T04:39:56;3.37;;;2.33;;
11931;SDS011;6025;51.368;6.788;2023-02-28T04:44:48;4.07;;;2.27;;
11931;SDS011;6025;51.368;6.788;2023-02-28T04:49:41;4.27;;;2.03;;
11931;SDS011;6025;51.368;6.788;2023-02-28T04:54:32;2.87;;;2.20;;
11931;SDS011;6025;51.368;6.788;2023-02-28T04:59:24;4.07;;;2.00;;
11931;SDS011;6025;51.368;6.788;2023-02-28T05:04:16;3.00;;;1.93;;
11931;SDS011;6025;51.368;6.788;2023-02-28T05:09:09;2.20;;;2.00;;
11931;SDS011;6025;51.368;6.788;2023-02-28T05:14:02;3.03;;;2.07;;
11931;SDS011;6025;51.368;6.788;2023-02-28T05:18:54;2.50;;;1.77;;
11931;SDS011;6025;51.368;6.788;2023-02-28T05:23:46;2.63;;;1.90;;
11931;SDS011;6025;51.368;6.788;2023-02-28T05:28:39;2.43;;;1.70;;
11931;SDS011;6025;51.368;6.788;2023-02-28T05:33:30;2.30;;;2.00;;
11931;SDS011;6025;51.368;6.788;2023-02-28T05:38:22;3.70;;;2.17;;
11931;SDS011;6025;51.368;6.788;2023-02-28T05:43:13;2.83;;;2.00;;
11931;SDS011;6025;51.368;6.788;2023-02-28T05:48:07;2.73;;;1.93;;
11931;SDS011;6025;51.368;6.788;2023-02-28T05:52:59;2.83;;;1.80;;
11931;SDS011;6025;51.368;6.788;2023-02-28T05:57:50;2.23;;;1.80;;
11931;SDS011;6025;51.368;6.788;2023-02-28T06:02:42;1.90;;;1.70;;
11931;SDS011;6025;51.368;6.788;2023-02-28T06:07:35;4.17;;;1.90;;
11931;SDS011;6025;51.368;6.788;2023-02-28T06:12:26;2.40;;;1.93;;
11931;SDS011;6025;51.368;6.788;2023-02-28T06:17:18;2.23;;;1.80;;
11931;SDS011;6025;51.368;6.788;2023-02-28T06:22:09;2.87;;;1.87;;
11931;SDS011;6025;51.368;6.788;2023-02-28T06:27:02;4.63;;;2.10;;
11931;SDS011;6025;51.368;6.788;2023-02-28T06:31:55;2.67;;;1.73;;
11931;SDS011;6025;51.368;6.788;2023-02-28T06:36:46;3.17;;;1.80;;
11931;SDS011;6025;51.368;6.788;2023-02-28T06:41:38;3.87;;;2.00;;
11931;SDS011;6025;51.368;6.788;2023-02-28T06:46:31;2.17;;;1.70;;
11931;SDS011;6025;51.368;6.788;2023-02-28T06:51:23;2.40;;;1.80;;
11931;SDS011;6025;51.368;6.788;2023-02-28T06:56:15;3.07;;;1.90;;
11931;SDS011;6025;51.368;6.788;2023-02-28T07:01:07;2.90;;;2.00;;
11931;SDS011;6025;51.368;6.788;2023-02-28T07:06:00;2.70;;;1.83;;
11931;SDS011;6025;51.368;6.788;2023-02-28T07:10:52;2.00;;;1.60;;
11931;SDS011;6025;51.368;6.788;2023-02-28T07:15:44;3.53;;;1.90;;
11931;SDS011;6025;51.368;6.788;2023-02-28T07:20:44;3.67;;;2.40;;
11931;SDS011;6025;51.368;6.788;2023-02-28T07:25:37;3.07;;;2.20;;
11931;SDS011;6025;51.368;6.788;2023-02-28T07:30:29;2.37;;;1.90;;
11931;SDS011;6025;51.368;6.788;2023-02-28T07:35:20;3.43;;;2.10;;
11931;SDS011;6025;51.368;6.788;2023-02-28T07:40:12;4.30;;;1.90;;
11931;SDS011;6025;51.368;6.788;2023-02-28T07:45:06;2.20;;;2.00;;
11931;SDS011;6025;51.368;6.788;2023-02-28T07:50:01;2.50;;;1.80;;
11931;SDS011;6025;51.368;6.788;2023-02-28T07:54:53;4.17;;;2.07;;
11931;SDS011;6025;51.368;6.788;2023-02-28T07:59:44;2.27;;;1.80;;
11931;SDS011;6025;51.368;6.788;2023-02-28T08:04:37;4.33;;;1.80;;
11931;SDS011;6025;51.368;6.788;2023-02-28T08:09:28;3.10;;;1.90;;
11931;SDS011;6025;51.368;6.788;2023-02-28T08:14:21;3.00;;;2.20;;
11931;SDS011;6025;51.368;6.788;2023-02-28T08:19:12;3.53;;;1.97;;
11931;SDS011;6025;51.368;6.788;2023-02-28T08:24:06;3.87;;;2.13;;
11931;SDS011;6025;51.368;6.788;2023-02-28T08:28:58;2.43;;;1.63;;
11931;SDS011;6025;51.368;6.788;2023-02-28T08:33:49;4.30;;;1.80;;
11931;SDS011;6025;51.368;6.788;2023-02-28T08:38:43;2.43;;;1.87;;
11931;SDS011;6025;51.368;6.788;2023-02-28T08:43:36;2.53;;;1.80;;
11931;SDS011;6025;51.368;6.788;2023-02-28T08:48:28;4.50;;;1.50;;
11931;SDS011;6025;51.368;6.788;2023-02-28T08:53:20;2.60;;;1.70;;
11931;SDS011;6025;51.368;6.788;2023-02-28T08:58:12;3.50;;;1.60;;
11931;SDS011;6025;51.368;6.788;2023-02-28T09:03:05;2.57;;;1.77;;
11931;SDS011;6025;51.368;6.788;2023-02-28T09:07:56;2.03;;;1.80;;
11931;SDS011;6025;51.368;6.788;2023-02-28T09:12:48;4.00;;;1.57;;
11931;SDS011;6025;51.368;6.788;2023-02-28T09:17:43;3.30;;;2.00;;
11931;SDS011;6025;51.368;6.788;2023-02-28T09:22:40;1.90;;;1.60;;
11931;SDS011;6025;51.368;6.788;2023-02-28T09:27:32;2.40;;;1.60;;
11931;SDS011;6025;51.368;6.788;2023-02-28T09:32:23;2.40;;;1.57;;
11931;SDS011;6025;51.368;6.788;2023-02-28T09:37:15;2.50;;;1.40;;
11931;SDS011;6025;51.368;6.788;2023-02-28T09:42:12;2.73;;;1.43;;
11931;SDS011;6025;51.368;6.788;2023-02-28T09:47:11;2.47;;;1.20;;
11931;SDS011;6025;51.368;6.788;2023-02-28T09:52:07;1.57;;;1.30;;
11931;SDS011;6025;51.368;6.788;2023-02-28T09:57:04;1.43;;;1.30;;
11931;SDS011;6025;51.368;6.788;2023-02-28T10:02:02;1.70;;;1.40;;
11931;SDS011;6025;51.368;6.788;2023-02-28T10:06:59;1.80;;;1.37;;
11931;SDS011;6025;51.368;6.788;2023-02-28T10:11:54;1.40;;;1.27;;
11931;SDS011;6025;51.368;6.788;2023-02-28T10:16:48;1.63;;;1.30;;
11931;SDS011;6025;51.368;6.788;2023-02-28T10:21:47;1.63;;;1.50;;
11931;SDS011;6025;51.368;6.788;2023-02-28T10:26:41;1.90;;;1.30;;
11931;SDS011;6025;51.368;6.788;2023-02-28T10:31:34;1.80;;;1.23;;
11931;SDS011;6025;51.368;6.788;2023-02-28T10:36:26;1.33;;;1.00;;
11931;SDS011;6025;51.368;6.788;2023-02-28T10:41:27;1.67;;;1.20;;
11931;SDS011;6025;51.368;6.788;2023-02-28T10:46:24;1.30;;;1.20;;
11931;SDS011;6025;51.368;6.788;2023-02-28T10:51:16;1.30;;;1.20;;
11931;SDS011;6025;51.368;6.788;2023-02-28T10:56:14;1.70;;;1.40;;
11931;SDS011;6025;51.368;6.788;2023-02-28T11:01:15;2.10;;;1.20;;
11931;SDS011;6025;51.368;6.788;2023-02-28T11:06:08;1.57;;;1.10;;
11931;SDS011;6025;51.368;6.788;2023-02-28T11:11:05;2.53;;;1.17;;
11931;SDS011;6025;51.368;6.788;2023-02-28T11:15:58;1.37;;;1.10;;
11931;SDS011;6025;51.368;6.788;2023-02-28T11:20:52;1.20;;;0.90;;
11931;SDS011;6025;51.368;6.788;2023-02-28T11:25:47;2.27;;;1.10;;
11931;SDS011;6025;51.368;6.788;2023-02-28T11:30:40;1.93;;;1.20;;
11931;SDS011;6025;51.368;6.788;2023-02-28T11:35:33;1.50;;;1.20;;
11931;SDS011;6025;51.368;6.788;2023-02-28T11:40:31;2.17;;;1.40;;
11931;SDS011;6025;51.368;6.788;2023-02-28T11:45:36;1.50;;;1.30;;
11931;SDS011;6025;51.368;6.788;2023-02-28T11:50:40;2.83;;;1.67;;
11931;SDS011;6025;51.368;6.788;2023-02-28T11:55:38;2.67;;;1.50;;
11931;SDS011;6025;51.368;6.788;2023-02-28T12:00:35;2.00;;;1.67;;
11931;SDS011;6025;51.368;6.788;2023-02-28T12:05:31;2.40;;;1.70;;
11931;SDS011;6025;51.368;6.788;2023-02-28T12:10:27;3.53;;;1.67;;
11931;SDS011;6025;51.368;6.788;2023-02-28T12:15:25;2.42;;;1.90;;
11931;SDS011;6025;51.368;6.788;2023-02-28T12:20:25;2.42;;;1.77;;
11931;SDS011;6025;51.368;6.788;2023-02-28T12:30:38;2.20;;;1.80;;
11931;SDS011;6025;51.368;6.788;2023-02-28T12:35:33;2.80;;;1.70;;
11931;SDS011;6025;51.368;6.788;2023-02-28T12:40:26;3.67;;;1.67;;
11931;SDS011;6025;51.368;6.788;2023-02-28T12:45:23;2.72;;;1.90;;
11931;SDS011;6025;51.368;6.788;2023-02-28T12:50:17;2.58;;;1.70;;
11931;SDS011;6025;51.368;6.788;2023-02-28T12:55:12;2.50;;;1.77;;
11931;SDS011;6025;51.368;6.788;2023-02-28T13:00:09;2.53;;;1.80;;
11931;SDS011;6025;51.368;6.788;2023-02-28T13:05:07;4.15;;;1.88;;
11931;SDS011;6025;51.368;6.788;2023-02-28T13:10:08;2.67;;;1.83;;
11931;SDS011;6025;51.368;6.788;2023-02-28T13:15:07;1.65;;;1.50;;
11931;SDS011;6025;51.368;6.788;2023-02-28T13:20:15;2.58;;;1.80;;
11931;SDS011;6025;51.368;6.788;2023-02-28T13:31:00;2.78;;;1.75;;
11931;SDS011;6025;51.368;6.788;2023-02-28T13:46:35;3.70;;;1.92;;
11931;SDS011;6025;51.368;6.788;2023-02-28T13:51:31;2.65;;;2.05;;
11931;SDS011;6025;51.368;6.788;2023-02-28T13:56:33;2.47;;;1.95;;
11931;SDS011;6025;51.368;6.788;2023-02-28T14:01:48;2.35;;;1.90;;
11931;SDS011;6025;51.368;6.788;2023-02-28T14:06:48;2.13;;;1.83;;
11931;SDS011;6025;51.368;6.788;2023-02-28T14:11:40;4.32;;;2.05;;
11931;SDS011;6025;51.368;6.788;2023-02-28T14:16:37;3.60;;;2.10;;
11931;SDS011;6025;51.368;6.788;2023-02-28T14:21:31;4.40;;;1.83;;
11931;SDS011;6025;51.368;6.788;2023-02-28T14:26:41;2.00;;;1.80;;
11931;SDS011;6025;51.368;6.788;2023-02-28T14:31:52;4.10;;;2.20;;
11931;SDS011;6025;51.368;6.788;2023-02-28T14:36:46;2.15;;;1.80;;
11931;SDS011;6025;51.368;6.788;2023-02-28T14:41:40;2.90;;;2.00;;
11931;SDS011;6025;51.368;6.788;2023-02-28T14:46:34;2.10;;;1.90;;
11931;SDS011;6025;51.368;6.788;2023-02-28T14:51:28;4.10;;;2.70;;
11931;SDS011;6025;51.368;6.788;2023-02-28T14:56:23;3.50;;;2.17;;
11931;SDS011;6025;51.368;6.788;2023-02-28T15:01:18;4.25;;;2.38;;
11931;SDS011;6025;51.368;6.788;2023-02-28T15:06:12;2.83;;;2.15;;
11931;SDS011;6025;51.368;6.788;2023-02-28T15:11:05;3.60;;;2.22;;
11931;SDS011;6025;51.368;6.788;2023-02-28T15:15:59;3.85;;;2.33;;
11931;SDS011;6025;51.368;6.788;2023-02-28T15:20:53;2.80;;;2.10;;
11931;SDS011;6025;51.368;6.788;2023-02-28T15:25:46;2.63;;;2.00;;
11931;SDS011;6025;51.368;6.788;2023-02-28T15:30:38;3.07;;;1.90;;
11931;SDS011;6025;51.368;6.788;2023-02-28T15:35:30;2.20;;;1.80;;
11931;SDS011;6025;51.368;6.788;2023-02-28T15:40:26;3.17;;;2.10;;
11931;SDS011;6025;51.368;6.788;2023-02-28T15:45:28;2.40;;;1.70;;
11931;SDS011;6025;51.368;6.788;2023-02-28T15:50:27;2.27;;;1.97;;
11931;SDS011;6025;51.368;6.788;2023-02-28T15:55:20;3.23;;;2.07;;
11931;SDS011;6025;51.368;6.788;2023-02-28T16:00:16;2.67;;;2.37;;
11931;SDS011;6025;51.368;6.788;2023-02-28T16:05:20;2.77;;;1.97;;
11931;SDS011;6025;51.368;6.788;2023-02-28T16:10:18;5.43;;;2.00;;
11931;SDS011;6025;51.368;6.788;2023-02-28T16:15:16;2.73;;;2.10;;
11931;SDS011;6025;51.368;6.788;2023-02-28T16:20:12;2.90;;;1.90;;
11931;SDS011;6025;51.368;6.788;2023-02-28T16:25:04;4.13;;;2.13;;
11931;SDS011;6025;51.368;6.788;2023-02-28T16:29:58;5.33;;;2.30;;
11931;SDS011;6025;51.368;6.788;2023-02-28T16:34:50;3.00;;;2.23;;
11931;SDS011;6025;51.368;6.788;2023-02-28T16:39:42;2.47;;;1.93;;
11931;SDS011;6025;51.368;6.788;2023-02-28T16:44:35;2.10;;;1.90;;
11931;SDS011;6025;51.368;6.788;2023-02-28T16:49:26;3.20;;;2.13;;
11931;SDS011;6025;51.368;6.788;2023-02-28T16:54:20;2.93;;;2.00;;
11931;SDS011;6025;51.368;6.788;2023-02-28T16:59:11;3.80;;;2.50;;
11931;SDS011;6025;51.368;6.788;2023-02-28T17:04:04;4.10;;;2.40;;
11931;SDS011;6025;51.368;6.788;2023-02-28T17:08:56;2.57;;;1.97;;
11931;SDS011;6025;51.368;6.788;2023-02-28T17:13:50;3.00;;;2.20;;
11931;SDS011;6025;51.368;6.788;2023-02-28T17:18:43;2.40;;;2.20;;
11931;SDS011;6025;51.368;6.788;2023-02-28T17:23:35;2.97;;;2.00;;
11931;SDS011;6025;51.368;6.788;2023-02-28T17:28:27;2.43;;;2.10;;
11931;SDS011;6025;51.368;6.788;2023-02-28T17:33:19;4.17;;;2.20;;
11931;SDS011;6025;51.368;6.788;2023-02-28T17:38:14;2.97;;;2.00;;
11931;SDS011;6025;51.368;6.788;2023-02-28T17:43:07;3.17;;;2.20;;
11931;SDS011;6025;51.368;6.788;2023-02-28T17:47:58;2.73;;;2.00;;
11931;SDS011;6025;51.368;6.788;2023-02-28T17:52:51;2.47;;;2.00;;
11931;SDS011;6025;51.368;6.788;2023-02-28T17:57:42;3.60;;;2.20;;
11931;SDS011;6025;51.368;6.788;2023-02-28T18:02:34;3.33;;;2.73;;
11931;SDS011;6025;51.368;6.788;2023-02-28T18:07:25;4.10;;;3.07;;
11931;SDS011;6025;51.368;6.788;2023-02-28T18:12:19;5.63;;;3.90;;
11931;SDS011;6025;51.368;6.788;2023-02-28T18:17:10;5.57;;;4.00;;
11931;SDS011;6025;51.368;6.788;2023-02-28T18:22:03;5.97;;;3.20;;
11931;SDS011;6025;51.368;6.788;2023-02-28T18:26:56;3.20;;;2.63;;
11931;SDS011;6025;51.368;6.788;2023-02-28T18:31:49;2.83;;;2.23;;
11931;SDS011;6025;51.368;6.788;2023-02-28T18:36:41;3.27;;;2.60;;
11931;SDS011;6025;51.368;6.788;2023-02-28T18:41:32;4.23;;;2.80;;
11931;SDS011;6025;51.368;6.788;2023-02-28T18:46:24;5.07;;;3.53;;
11931;SDS011;6025;51.368;6.788;2023-02-28T18:51:17;6.07;;;3.60;;
11931;SDS011;6025;51.368;6.788;2023-02-28T18:56:10;11.30;;;5.63;;
11931;SDS011;6025;51.368;6.788;2023-02-28T19:01:03;9.67;;;5.70;;
11931;SDS011;6025;51.368;6.788;2023-02-28T19:05:59;8.67;;;4.70;;
11931;SDS011;6025;51.368;6.788;2023-02-28T19:10:52;7.57;;;3.10;;
11931;SDS011;6025;51.368;6.788;2023-02-28T19:15:43;4.07;;;2.70;;
11931;SDS011;6025;51.368;6.788;2023-02-28T19:20:35;7.50;;;4.13;;
11931;SDS011;6025;51.368;6.788;2023-02-28T19:25:27;6.93;;;4.60;;
11931;SDS011;6025;51.368;6.788;2023-02-28T19:30:20;5.77;;;4.20;;
11931;SDS011;6025;51.368;6.788;2023-02-28T19:35:13;5.77;;;3.33;;
11931;SDS011;6025;51.368;6.788;2023-02-28T19:40:06;11.70;;;5.00;;
11931;SDS011;6025;51.368;6.788;2023-02-28T19:44:58;6.40;;;4.47;;
11931;SDS011;6025;51.368;6.788;2023-02-28T19:49:52;5.30;;;3.60;;
11931;SDS011;6025;51.368;6.788;2023-02-28T19:54:43;5.60;;;3.10;;
11931;SDS011;6025;51.368;6.788;2023-02-28T19:59:35;5.87;;;4.20;;
11931;SDS011;6025;51.368;6.788;2023-02-28T20:04:27;4.17;;;3.07;;
11931;SDS011;6025;51.368;6.788;2023-02-28T20:09:20;5.80;;;3.90;;
11931;SDS011;6025;51.368;6.788;2023-02-28T20:14:11;6.67;;;4.40;;
11931;SDS011;6025;51.368;6.788;2023-02-28T20:19:03;7.27;;;4.33;;
11931;SDS011;6025;51.368;6.788;2023-02-28T20:23:55;4.97;;;3.50;;
11931;SDS011;6025;51.368;6.788;2023-02-28T20:28:47;8.70;;;5.37;;
11931;SDS011;6025;51.368;6.788;2023-02-28T20:33:39;7.03;;;3.27;;
11931;SDS011;6025;51.368;6.788;2023-02-28T20:38:31;3.93;;;3.10;;
11931;SDS011;6025;51.368;6.788;2023-02-28T20:43:23;8.40;;;5.73;;
11931;SDS011;6025;51.368;6.788;2023-02-28T20:48:16;6.40;;;4.20;;
11931;SDS011;6025;51.368;6.788;2023-02-28T20:53:08;5.20;;;3.63;;
11931;SDS011;6025;51.368;6.788;2023-02-28T20:57:59;10.07;;;5.30;;
11931;SDS011;6025;51.368;6.788;2023-02-28T21:02:51;8.47;;;5.13;;
11931;SDS011;6025;51.368;6.788;2023-02-28T21:07:44;7.30;;;3.90;;
11931;SDS011;6025;51.368;6.788;2023-02-28T21:12:36;5.97;;;3.63;;
11931;SDS011;6025;51.368;6.788;2023-02-28T21:17:27;4.63;;;3.30;;
11931;SDS011;6025;51.368;6.788;2023-02-28T21:22:19;5.00;;;3.00;;
11931;SDS011;6025;51.368;6.788;2023-02-28T21:27:11;3.60;;;3.00;;
11931;SDS011;6025;51.368;6.788;2023-02-28T21:32:03;3.53;;;2.70;;
11931;SDS011;6025;51.368;6.788;2023-02-28T21:36:56;4.07;;;2.80;;
11931;SDS011;6025;51.368;6.788;2023-02-28T21:41:48;5.20;;;2.80;;
11931;SDS011;6025;51.368;6.788;2023-02-28T21:46:41;4.20;;;2.97;;
11931;SDS011;6025;51.368;6.788;2023-02-28T21:51:32;5.93;;;3.20;;
11931;SDS011;6025;51.368;6.788;2023-02-28T21:56:24;4.70;;;3.40;;
11931;SDS011;6025;51.368;6.788;2023-02-28T22:01:18;4.77;;;3.23;;
11931;SDS011;6025;51.368;6.788;2023-02-28T22:06:12;4.70;;;3.20;;
11931;SDS011;6025;51.368;6.788;2023-02-28T22:11:04;4.23;;;2.93;;
11931;SDS011;6025;51.368;6.788;2023-02-28T22:15:59;5.07;;;3.07;;
11931;SDS011;6025;51.368;6.788;2023-02-28T22:20:55;3.10;;;2.80;;
11931;SDS011;6025;51.368;6.788;2023-02-28T22:25:48;4.70;;;3.20;;
11931;SDS011;6025;51.368;6.788;2023-02-28T22:30:39;5.87;;;3.07;;
11931;SDS011;6025;51.368;6.788;2023-02-28T22:35:31;4.70;;;3.20;;
11931;SDS011;6025;51.368;6.788;2023-02-28T22:40:22;5.07;;;3.50;;
11931;SDS011;6025;51.368;6.788;2023-02-28T22:45:15;4.23;;;3.40;;
11931;SDS011;6025;51.368;6.788;2023-02-28T22:50:07;3.60;;;3.17;;
11931;SDS011;6025;51.368;6.788;2023-02-28T22:55:00;5.40;;;3.53;;
11931;SDS011;6025;51.368;6.788;2023-02-28T22:59:51;5.80;;;3.47;;
11931;SDS011;6025;51.368;6.788;2023-02-28T23:04:44;4.37;;;3.50;;
11931;SDS011;6025;51.368;6.788;2023-02-28T23:09:36;4.77;;;3.50;;
11931;SDS011;6025;51.368;6.788;2023-02-28T23:14:28;3.93;;;3.47;;
11931;SDS011;6025;51.368;6.788;2023-02-28T23:19:20;5.77;;;3.60;;
11931;SDS011;6025;51.368;6.788;2023-02-28T23:24:16;5.43;;;3.57;;
11931;SDS011;6025;51.368;6.788;2023-02-28T23:29:10;5.50;;;3.70;;
11931;SDS011;6025;51.368;6.788;2023-02-28T23:34:02;5.00;;;3.23;;
11931;SDS011;6025;51.368;6.788;2023-02-28T23:38:54;4.70;;;3.83;;
11931;SDS011;6025;51.368;6.788;2023-02-28T23:43:47;4.37;;;3.63;;
11931;SDS011;6025;51.368;6.788;2023-02-28T23:48:39;6.43;;;3.73;;
11931;SDS011;6025;51.368;6.788;2023-02-28T23:53:30;5.33;;;4.17;;
11931;SDS011;6025;51.368;6.788;2023-02-28T23:58:22;4.93;;;3.77;;
